Time;durP1;ratioP1;P1;durP2;ratioP2;P2;SDS_P1;SDS_P2;PMS_P1;PMS_P2;Temp;Humidity;BMP_temperature;BMP_pressure;BME280_temperature;BME280_humidity;BME280_pressure;Samples;Min_cycle;Max_cycle;Signal;HPM_P1;HPM_P2
2022/12/15 00:42:17;;;;;;;31.42;23.42;;;;;;;-2.28;72.70;99097.03;10361646;28;20508;-48
2022/12/15 00:47:19;;;;;;;26.27;23.25;;;;;;;-2.28;74.06;99122.22;10356032;28;20240;-48
2022/12/15 01:25:20;;;;;;;28.55;22.40;;;;;;;-2.34;74.24;99157.25;10359682;28;20068;-51
2022/12/15 01:30:24;;;;;;;28.80;21.48;;;;;;;-2.28;74.04;99161.34;10357392;28;20049;-48
2022/12/15 01:35:26;;;;;;;26.88;21.58;;;;;;;-2.38;73.46;99159.16;10362389;28;20091;-48
2022/12/15 01:40:48;;;;;;;25.08;21.00;;;;;;;-2.50;74.26;99163.13;10361663;28;20114;-49
2022/12/15 01:46:14;;;;;;;27.10;21.52;;;;;;;-2.46;74.36;99186.47;10362060;28;20723;-49
2022/12/15 01:51:16;;;;;;;;;;;;;;;-2.31;73.54;99188.41;10362152;28;20064;-47
2022/12/15 01:56:18;;;;;;;27.40;21.27;;;;;;;-2.51;72.79;99190.13;10363172;28;19925;-48
2022/12/15 02:01:20;;;;;;;25.65;21.08;;;;;;;-2.58;73.58;99186.09;10360049;28;20106;-48
2022/12/15 02:06:24;;;;;;;24.80;20.63;;;;;;;-2.59;74.52;99184.41;10369945;28;20092;-49
2022/12/15 02:11:53;;;;;;;26.00;21.07;;;;;;;-2.50;74.13;99188.38;10360271;28;20052;-48
2022/12/15 02:17:04;;;;;;;28.15;20.65;;;;;;;-2.57;74.50;99199.97;10368302;28;20199;-47
2022/12/15 02:22:53;;;;;;;22.63;18.92;;;;;;;-2.54;74.28;99198.09;10361556;28;20760;-48
2022/12/15 02:28:05;;;;;;;29.58;22.63;;;;;;;-2.51;74.08;99202.28;10327010;28;21990;-48
2022/12/15 02:33:20;;;;;;;27.65;21.58;;;;;;;-2.52;74.53;99217.09;10370512;28;20076;-49
2022/12/15 02:38:34;;;;;;;27.38;21.08;;;;;;;-2.56;73.80;99215.53;10366953;28;20148;-49
2022/12/15 02:43:37;;;;;;;27.08;20.70;;;;;;;-2.61;74.19;99214.91;10367563;28;20049;-47
2022/12/15 02:48:49;;;;;;;27.45;20.77;;;;;;;-2.67;73.95;99217.75;10366016;28;20578;-48
2022/12/15 02:54:07;;;;;;;26.17;20.20;;;;;;;-2.72;74.40;99224.91;10367367;28;20041;-51
2022/12/15 02:59:20;;;;;;;25.65;20.17;;;;;;;-2.76;74.27;99224.22;10366417;28;20067;-48
2022/12/15 03:04:22;;;;;;;25.77;20.75;;;;;;;-2.77;74.26;99232.09;10364867;28;20080;-48
2022/12/15 03:09:23;;;;;;;22.90;20.20;;;;;;;-2.75;74.25;99251.09;10361408;28;20060;-48
2022/12/15 03:14:25;;;;;;;23.20;19.45;;;;;;;-2.78;74.41;99253.81;10363355;28;20299;-49
2022/12/15 03:19:27;;;;;;;28.13;20.67;;;;;;;-2.79;74.44;99253.00;10364159;28;20137;-48
2022/12/15 03:24:28;;;;;;;22.77;19.67;;;;;;;-2.83;74.24;99254.03;10362632;28;20702;-48
2022/12/15 03:29:30;;;;;;;22.85;19.25;;;;;;;-2.91;74.26;99256.94;10362725;28;20060;-49
2022/12/15 03:34:31;;;;;;;24.67;19.13;;;;;;;-2.85;73.89;99261.06;10364927;28;20060;-48
2022/12/15 03:39:32;;;;;;;29.88;20.25;;;;;;;-2.86;73.52;99269.78;10365026;28;20455;-49
2022/12/15 03:44:34;;;;;;;24.17;18.77;;;;;;;-2.94;73.97;99267.50;10364824;28;20045;-48
2022/12/15 03:49:35;;;;;;;24.35;19.17;;;;;;;-3.06;73.90;99255.81;10363967;28;20079;-48
2022/12/15 03:54:37;;;;;;;25.58;20.20;;;;;;;-2.99;73.12;99268.59;10361796;28;20048;-50
2022/12/15 03:59:38;;;;;;;25.27;19.42;;;;;;;-2.97;73.92;99298.88;10365146;28;20055;-49
2022/12/15 04:04:40;;;;;;;25.70;19.40;;;;;;;-3.05;73.80;99270.53;10362902;28;20050;-48
2022/12/15 04:09:41;;;;;;;23.90;19.38;;;;;;;-3.04;73.76;99279.19;10361436;28;20053;-49
2022/12/15 04:14:42;;;;;;;23.60;19.42;;;;;;;-3.00;73.74;99292.91;10369744;28;20423;-49
2022/12/15 05:34:33;;;;;;;24.90;20.83;;;;;;;-2.31;75.36;99330.00;10358548;28;20052;-47
2022/12/15 05:39:35;;;;;;;29.98;21.45;;;;;;;-2.25;75.45;99333.25;10362017;28;20775;-49
2022/12/15 05:44:37;;;;;;;27.85;20.85;;;;;;;-2.19;75.23;99336.47;10370270;28;20049;-48
2022/12/15 05:49:38;;;;;;;27.05;19.85;;;;;;;-2.16;75.02;99343.31;10359379;28;20558;-47
2022/12/15 05:54:39;;;;;;;25.33;19.48;;;;;;;-2.18;76.10;99343.41;10365664;28;20054;-49
2022/12/15 05:59:41;;;;;;;24.88;20.23;;;;;;;-2.13;76.66;99349.25;10353862;28;20045;-48
2022/12/15 06:04:42;;;;;;;26.40;19.75;;;;;;;-2.12;76.61;99347.47;10368749;28;20129;-48
2022/12/15 06:09:45;;;;;;;27.35;20.80;;;;;;;-2.03;76.05;99354.06;10367641;28;20049;-48
2022/12/15 06:14:46;;;;;;;23.15;18.92;;;;;;;-1.97;76.84;99359.88;10366656;28;20431;-49
2022/12/15 06:19:50;;;;;;;26.35;17.85;;;;;;;-1.89;76.84;99369.97;10363561;28;20250;-48
2022/12/15 06:24:51;;;;;;;24.30;17.92;;;;;;;-1.92;76.69;99377.94;10339211;28;20064;-49
2022/12/15 06:29:53;;;;;;;25.17;18.35;;;;;;;-1.88;77.20;99378.63;10344479;28;20106;-51
2022/12/15 06:34:54;;;;;;;24.92;17.67;;;;;;;-1.85;76.79;99388.94;10339387;28;20057;-48
2022/12/15 06:39:55;;;;;;;21.17;17.17;;;;;;;-1.87;77.08;99381.19;10339973;28;20421;-50
2022/12/15 06:44:57;;;;;;;24.00;18.00;;;;;;;-1.80;76.76;99377.41;10337879;28;20053;-48
2022/12/15 06:49:58;;;;;;;23.17;17.58;;;;;;;-1.62;76.42;99385.34;10339013;28;20482;-48
2022/12/15 06:55:00;;;;;;;22.85;17.48;;;;;;;-1.57;76.37;99399.03;10333349;28;21323;-55
2022/12/15 07:00:03;;;;;;;27.55;19.23;;;;;;;-1.55;75.08;99399.78;10335840;28;20050;-49
2022/12/15 07:05:04;;;;;;;24.45;18.25;;;;;;;-1.65;75.11;99393.28;10334238;28;20132;-52
2022/12/15 07:10:06;;;;;;;24.48;19.00;;;;;;;-1.60;75.47;99414.81;10351147;28;20591;-48
2022/12/15 07:15:10;;;;;;;23.48;17.55;;;;;;;-1.58;74.58;99410.38;10339166;28;20653;-49
2022/12/15 07:20:11;;;;;;;23.10;17.55;;;;;;;-1.61;75.11;99418.34;10324960;28;20441;-50
2022/12/15 07:25:13;;;;;;;24.63;17.40;;;;;;;-1.68;75.17;99436.03;10349323;28;20060;-49
2022/12/15 07:30:16;;;;;;;23.20;16.42;;;;;;;-1.76;76.19;99432.91;10339179;28;20056;-48
2022/12/15 07:35:17;;;;;;;30.52;22.90;;;;;;;-1.69;75.60;99449.16;10341533;28;20426;-49
2022/12/15 07:40:19;;;;;;;26.42;18.55;;;;;;;-1.61;75.70;99426.16;10337769;28;20103;-49
2022/12/15 07:45:20;;;;;;;25.95;19.15;;;;;;;-1.57;75.35;99421.69;10341585;28;21498;-49
2022/12/15 07:50:22;;;;;;;30.85;21.83;;;;;;;-1.55;75.50;99428.50;10339255;28;20111;-49
2022/12/15 07:55:24;;;;;;;24.90;19.02;;;;;;;-1.55;75.04;99432.88;10341186;28;20080;-49
2022/12/15 08:00:45;;;;;;;24.95;19.42;;;;;;;-1.60;74.50;99430.47;10338811;28;20816;-48
2022/12/15 08:05:49;;;;;;;26.08;19.98;;;;;;;-1.65;75.46;99433.28;10341442;28;20602;-48
2022/12/15 08:10:50;;;;;;;22.83;17.95;;;;;;;-1.93;74.50;99417.97;10336303;28;20050;-48
2022/12/15 08:15:53;;;;;;;21.70;17.60;;;;;;;-1.44;75.27;99451.56;10340331;28;20056;-48
2022/12/15 08:20:55;;;;;;;23.77;18.08;;;;;;;-1.47;73.45;99468.19;10341226;28;20059;-49
2022/12/15 08:26:10;;;;;;;24.08;18.17;;;;;;;-1.50;73.61;99451.78;10341309;28;20060;-50
2022/12/15 08:31:15;;;;;;;18.70;14.30;;;;;;;-1.47;74.07;99447.31;10337335;28;20152;-48
2022/12/15 08:36:19;;;;;;;21.83;17.67;;;;;;;-1.43;73.76;99461.94;10338412;28;20041;-48
2022/12/15 08:41:23;;;;;;;22.27;17.58;;;;;;;-1.39;73.91;99464.41;10337944;28;20243;-49
2022/12/15 08:46:27;;;;;;;23.17;18.30;;;;;;;-1.30;73.40;99451.78;10336368;28;20061;-50
2022/12/15 08:51:31;;;;;;;21.83;17.08;;;;;;;-1.34;73.06;99475.47;10341045;28;20124;-49
2022/12/15 08:56:34;;;;;;;23.33;18.38;;;;;;;-1.24;72.94;99479.38;10338666;28;20398;-48
2022/12/15 09:01:38;;;;;;;21.88;17.52;;;;;;;-1.12;72.78;99483.22;10336877;28;20395;-50
2022/12/15 09:06:41;;;;;;;21.88;18.77;;;;;;;-1.22;72.66;99472.31;10334457;28;20124;-48
2022/12/15 09:11:42;;;;;;;26.48;19.88;;;;;;;-1.23;73.27;99481.09;10351766;28;20053;-49
2022/12/15 09:16:43;;;;;;;25.48;19.73;;;;;;;-1.20;72.95;99496.63;10337524;28;20754;-48
2022/12/15 09:21:46;;;;;;;24.40;19.13;;;;;;;-1.20;72.87;99501.84;10341166;28;20154;-48
2022/12/15 09:26:48;;;;;;;23.15;19.48;;;;;;;-1.14;72.38;99501.56;10337623;28;20041;-49
2022/12/15 09:31:50;;;;;;;25.52;21.45;;;;;;;-1.05;72.86;99509.91;10337283;28;20121;-48
2022/12/15 09:36:51;;;;;;;30.63;23.33;;;;;;;-0.98;73.02;99522.63;10335842;28;20146;-50
2022/12/15 09:41:57;;;;;;;28.52;21.42;;;;;;;-1.00;72.97;99526.25;10335508;28;20049;-47
2022/12/15 09:47:11;;;;;;;22.85;19.55;;;;;;;-0.99;72.32;99535.75;10338624;28;20863;-48
2022/12/15 09:52:39;;;;;;;26.85;19.60;;;;;;;-0.98;73.22;99532.22;10335252;28;20613;-48
2022/12/15 09:57:51;;;;;;;26.27;21.33;;;;;;;-0.98;72.87;99534.84;10338377;28;20506;-48
2022/12/15 10:03:24;;;;;;;27.85;20.83;;;;;;;-1.04;73.17;99522.91;10340019;28;20682;-48
2022/12/15 10:08:29;;;;;;;31.05;23.65;;;;;;;-0.99;73.10;99525.31;10337581;28;20061;-48
2022/12/15 10:13:57;;;;;;;28.15;19.90;;;;;;;-0.96;73.29;99526.03;10336718;28;20141;-48
2022/12/15 10:19:07;;;;;;;23.52;17.80;;;;;;;-0.98;72.65;99542.69;10340720;28;20057;-49
2022/12/15 10:24:15;;;;;;;27.30;18.50;;;;;;;-0.94;73.46;99533.81;10338907;28;20116;-50
2022/12/15 10:29:43;;;;;;;27.77;20.02;;;;;;;-1.18;74.02;99549.63;10340947;28;20072;-48
2022/12/15 10:34:51;;;;;;;28.42;19.83;;;;;;;-1.03;74.26;99558.56;10347576;28;20140;-48
2022/12/15 10:39:52;;;;;;;28.20;20.48;;;;;;;-1.00;74.26;99534.06;10344382;28;20056;-48
2022/12/15 10:44:56;;;;;;;32.13;22.45;;;;;;;-0.94;74.58;99520.75;10343855;28;20065;-48
2022/12/15 10:50:22;;;;;;;31.15;22.60;;;;;;;-0.87;74.44;99518.69;10340646;28;20144;-50
2022/12/15 10:55:39;;;;;;;32.72;23.40;;;;;;;-0.75;74.06;99526.84;10343510;28;20458;-49
2022/12/15 11:00:40;;;;;;;31.25;22.27;;;;;;;-0.75;73.44;99523.34;10355325;28;20049;-47
2022/12/15 11:05:51;;;;;;;36.35;21.75;;;;;;;-0.72;73.00;99524.06;10367245;28;20763;-48
2022/12/15 11:16:18;;;;;;;30.30;20.45;;;;;;;-0.58;72.67;99505.13;10368885;28;20429;-48
2022/12/15 11:21:27;;;;;;;28.38;19.48;;;;;;;-0.55;72.47;99488.47;10367304;28;20425;-48
2022/12/15 11:27:02;;;;;;;28.58;19.50;;;;;;;-0.67;72.58;99489.03;10368781;28;20076;-49
2022/12/15 11:32:04;;;;;;;30.60;21.10;;;;;;;-0.59;72.50;99487.75;10366624;28;20045;-48
2022/12/15 11:37:22;;;;;;;31.98;20.90;;;;;;;-0.61;72.87;99480.91;10365879;28;20077;-48
2022/12/15 11:42:51;;;;;;;32.70;21.80;;;;;;;-0.60;73.04;99475.63;10365361;28;20045;-48
2022/12/15 11:48:18;;;;;;;29.48;21.80;;;;;;;-0.51;73.26;99466.50;10367901;28;20486;-48
2022/12/15 11:53:32;;;;;;;30.35;21.05;;;;;;;-0.54;72.75;99446.56;10367106;28;20041;-50
2022/12/15 11:58:53;;;;;;;28.85;20.98;;;;;;;-0.53;72.49;99455.25;10366419;28;20049;-48
2022/12/15 12:04:13;;;;;;;28.05;21.38;;;;;;;-0.55;72.51;99450.09;10364764;28;20063;-50
2022/12/15 12:09:31;;;;;;;29.25;20.02;;;;;;;-0.46;72.27;99461.88;10359219;28;20266;-48
2022/12/15 12:14:45;;;;;;;29.48;20.25;;;;;;;-0.43;72.47;99445.22;10356849;28;20092;-49
2022/12/15 12:19:57;;;;;;;28.33;20.63;;;;;;;-0.43;72.86;99440.81;10358216;28;20060;-48
2022/12/15 12:25:03;;;;;;;30.85;21.75;;;;;;;-0.33;72.75;99438.63;10363946;28;20076;-49
2022/12/15 12:30:12;;;;;;;27.38;21.00;;;;;;;-0.27;72.86;99434.84;10356138;28;20493;-48
2022/12/15 12:35:32;;;;;;;28.73;19.15;;;;;;;-0.23;71.88;99433.75;10357939;28;20133;-47
2022/12/15 12:40:40;;;;;;;28.80;21.30;;;;;;;-0.33;72.24;99419.44;10360623;28;20664;-48
2022/12/15 12:45:53;;;;;;;28.30;20.02;;;;;;;-0.30;71.63;99394.00;10360456;28;20050;-48
2022/12/15 12:51:33;;;;;;;29.95;20.63;;;;;;;-0.31;71.59;99376.59;10360197;28;20057;-48
2022/12/15 12:56:44;;;;;;;28.80;19.92;;;;;;;-0.57;72.12;99329.06;10358116;28;20060;-48
2022/12/15 13:01:50;;;;;;;27.70;19.30;;;;;;;-0.28;72.08;99365.16;10356792;28;20045;-55
2022/12/15 13:06:58;;;;;;;33.05;22.73;;;;;;;-0.26;72.46;99358.91;10360124;28;20053;-47
2022/12/15 13:12:00;;;;;;;31.75;22.27;;;;;;;-0.38;72.84;99347.28;10358816;28;20647;-47
2022/12/15 13:17:28;;;;;;;30.70;21.15;;;;;;;-0.43;72.66;99322.31;10358941;28;20103;-47
2022/12/15 13:22:34;;;;;;;27.73;21.63;;;;;;;-0.24;72.42;99341.38;10329945;28;20170;-48
2022/12/15 13:27:39;;;;;;;30.92;21.77;;;;;;;-0.25;72.88;99354.53;10361363;28;20557;-48
2022/12/15 13:32:44;;;;;;;29.67;21.30;;;;;;;-0.23;72.60;99342.22;10361090;28;20050;-48
2022/12/15 13:37:52;;;;;;;;;;;;;;;-0.38;72.91;99344.66;10360739;28;20050;-49
2022/12/15 13:42:58;;;;;;;29.17;20.17;;;;;;;-0.36;72.78;99334.16;10362156;28;19948;-49
2022/12/15 13:48:04;;;;;;;24.90;19.90;;;;;;;-0.40;72.80;99315.13;10362425;28;20768;-50
2022/12/15 13:53:12;;;;;;;29.42;20.73;;;;;;;-0.31;72.92;99323.47;10360844;28;20135;-51
2022/12/15 13:58:22;;;;;;;;;;;;;;;-0.20;72.22;99303.66;10361520;28;20045;-50
2022/12/15 14:03:24;;;;;;;24.90;19.70;;;;;;;0.20;69.87;99298.13;10368581;28;19928;-49
2022/12/15 14:08:29;;;;;;;28.17;19.52;;;;;;;0.16;69.89;99300.06;10367935;28;20087;-47
2022/12/15 14:13:34;;;;;;;27.52;20.30;;;;;;;-0.01;70.91;99311.41;10366057;28;20053;-50
2022/12/15 14:18:39;;;;;;;29.38;20.73;;;;;;;-0.25;71.07;99307.47;10367822;28;20060;-48
2022/12/15 14:23:44;;;;;;;28.33;19.52;;;;;;;-0.43;72.53;99283.09;10366640;28;20041;-49
2022/12/15 14:29:05;;;;;;;29.83;21.80;;;;;;;-0.49;72.65;99304.31;10361179;28;20054;-49
2022/12/15 14:34:14;;;;;;;31.90;23.25;;;;;;;-0.68;73.42;99305.22;10362144;28;20642;-55
2022/12/15 14:39:21;;;;;;;29.92;21.05;;;;;;;-0.69;73.71;99320.97;10351046;28;20061;-48
2022/12/15 14:44:34;;;;;;;26.25;19.42;;;;;;;-0.68;73.37;99340.97;10337764;28;20053;-48
2022/12/15 14:49:42;;;;;;;26.63;20.08;;;;;;;-0.70;72.92;99348.88;10338959;28;20119;-47
2022/12/15 14:54:55;;;;;;;25.50;19.50;;;;;;;-0.82;73.46;99367.78;10336573;28;20137;-50
2022/12/15 15:00:31;;;;;;;26.67;19.80;;;;;;;-0.97;73.50;99361.50;10338202;28;20060;-51
2022/12/15 15:05:33;;;;;;;28.70;20.40;;;;;;;-1.09;74.24;99374.22;10335072;28;20118;-49
2022/12/15 15:10:34;;;;;;;26.83;20.35;;;;;;;-1.00;74.10;99356.44;10338364;28;20061;-48
2022/12/15 15:15:36;;;;;;;29.48;21.83;;;;;;;-1.27;74.21;99348.97;10337824;28;20643;-48
2022/12/15 15:20:37;;;;;;;30.85;21.55;;;;;;;-1.23;74.80;99350.53;10340477;28;20140;-48
2022/12/15 15:25:47;;;;;;;29.13;20.15;;;;;;;-1.33;75.22;99352.69;10338770;28;20053;-49
2022/12/15 15:30:56;;;;;;;27.52;20.95;;;;;;;-1.27;75.76;99341.13;10336567;28;20129;-50
2022/12/15 15:36:01;;;;;;;29.73;20.60;;;;;;;-1.40;75.34;99340.00;10334371;28;20045;-48
2022/12/15 15:41:16;;;;;;;27.67;20.00;;;;;;;-1.49;76.37;99346.47;10332547;28;20052;-48
2022/12/15 15:46:21;;;;;;;30.35;22.02;;;;;;;-1.53;76.87;99358.81;10334322;28;20136;-49
2022/12/15 15:51:23;;;;;;;;;;;;;;;-1.55;76.94;99363.25;10338932;28;20045;-47
2022/12/15 15:56:26;;;;;;;28.52;20.50;;;;;;;-1.55;77.33;99360.63;10336266;28;21418;-48
2022/12/15 16:01:27;;;;;;;26.60;19.58;;;;;;;-1.65;76.87;99360.22;10336477;28;20053;-50
2022/12/15 16:06:29;;;;;;;27.73;19.95;;;;;;;-1.75;76.71;99351.09;10338443;28;20064;-48
2022/12/15 16:11:31;;;;;;;29.92;21.58;;;;;;;-1.73;76.96;99353.66;10336878;28;20053;-47
2022/12/15 16:16:33;;;;;;;24.88;19.13;;;;;;;-1.76;76.71;99325.06;10335690;28;20058;-48
2022/12/15 16:21:35;;;;;;;26.17;20.17;;;;;;;-1.81;76.49;99328.72;10335059;28;20053;-48
2022/12/15 16:26:37;;;;;;;28.45;19.25;;;;;;;-1.72;76.27;99344.91;10351379;28;20729;-51
2022/12/15 16:31:44;;;;;;;25.58;18.02;;;;;;;-1.75;76.18;99339.81;10333480;28;20065;-50
2022/12/15 16:36:45;;;;;;;25.08;19.45;;;;;;;-1.73;76.14;99330.16;10332477;28;20060;-47
2022/12/15 16:41:47;;;;;;;25.35;18.75;;;;;;;-1.68;75.56;99320.34;10332793;28;20057;-50
2022/12/15 16:46:49;;;;;;;25.73;18.55;;;;;;;-1.73;75.29;99319.72;10330465;28;20561;-50
2022/12/15 16:51:52;;;;;;;27.98;19.90;;;;;;;-1.76;75.24;99319.84;10336865;28;20628;-48
2022/12/15 16:56:55;;;;;;;23.73;18.27;;;;;;;-1.68;74.79;99325.56;10329888;28;20386;-48
2022/12/15 17:01:56;;;;;;;25.52;18.25;;;;;;;-1.79;74.91;99316.47;10331858;28;22215;-47
2022/12/15 17:06:58;;;;;;;25.95;19.30;;;;;;;-1.86;75.09;99325.50;10330528;28;20125;-47
2022/12/15 17:12:00;;;;;;;25.30;19.67;;;;;;;-1.91;74.90;99327.44;10330635;28;21033;-48
2022/12/15 17:17:01;;;;;;;24.90;18.98;;;;;;;-1.89;75.52;99336.06;10331567;28;20223;-48
2022/12/15 17:22:03;;;;;;;25.75;19.17;;;;;;;-1.85;75.12;99336.75;10328611;28;20062;-53
2022/12/15 17:27:04;;;;;;;24.50;17.90;;;;;;;-1.79;74.80;99342.56;10331025;28;20053;-48
2022/12/15 17:32:11;;;;;;;24.70;17.15;;;;;;;-1.70;74.49;99343.06;10346060;28;20065;-47
2022/12/15 17:37:13;;;;;;;23.08;17.33;;;;;;;-2.00;74.05;99296.53;10335585;28;20068;-49
2022/12/15 17:42:19;;;;;;;22.23;16.83;;;;;;;-1.74;74.47;99336.28;10338841;28;20048;-48
2022/12/15 17:47:23;;;;;;;23.58;17.80;;;;;;;-1.87;74.38;99336.00;10332047;28;20069;-48
2022/12/15 17:52:29;;;;;;;24.58;17.40;;;;;;;-1.85;74.81;99342.81;10329289;28;20056;-49
2022/12/15 17:57:31;;;;;;;23.55;18.30;;;;;;;-1.82;74.79;99332.28;10336258;28;20045;-48
2022/12/15 18:02:32;;;;;;;24.40;17.73;;;;;;;-1.83;74.06;99325.34;10333939;28;20057;-48
2022/12/15 18:07:35;;;;;;;22.30;16.85;;;;;;;-1.81;73.90;99323.50;10334279;28;20057;-47
2022/12/15 18:12:36;;;;;;;22.83;17.25;;;;;;;-1.84;74.27;99323.66;10333059;28;20057;-48
2022/12/15 18:17:37;;;;;;;25.35;17.90;;;;;;;-1.83;74.03;99317.53;10336876;28;20090;-51
2022/12/15 18:22:39;;;;;;;26.52;18.58;;;;;;;-1.89;74.08;99323.03;10336391;28;20604;-52
2022/12/15 18:27:40;;;;;;;25.75;18.77;;;;;;;-1.97;74.66;99309.44;10341279;28;20065;-53
2022/12/15 18:32:43;;;;;;;29.35;18.73;;;;;;;-2.09;74.61;99296.97;10337331;28;20789;-53
2022/12/15 18:37:46;;;;;;;25.38;18.85;;;;;;;-2.19;73.96;99284.31;10334674;28;20666;-52
2022/12/15 18:42:47;;;;;;;24.35;17.70;;;;;;;-2.07;73.73;99303.81;10334667;28;20065;-53
2022/12/15 18:47:50;;;;;;;24.27;17.88;;;;;;;-2.08;73.88;99309.09;10337601;28;20245;-52
2022/12/15 18:52:58;;;;;;;25.40;19.13;;;;;;;-2.17;73.61;99305.94;10344108;28;20049;-53
2022/12/15 18:58:00;;;;;;;26.75;19.95;;;;;;;-2.19;74.13;99304.31;10348214;28;20053;-51
2022/12/15 19:03:02;;;;;;;27.90;19.23;;;;;;;-2.32;73.31;99290.97;10341010;28;20053;-52
2022/12/15 19:08:24;;;;;;;25.52;18.60;;;;;;;-2.24;73.58;99299.31;10333594;28;20049;-53
2022/12/15 19:13:31;;;;;;;31.00;18.83;;;;;;;-2.26;72.53;99289.88;10344877;28;20747;-51
2022/12/15 19:23:53;;;;;;;24.00;16.98;;;;;;;-2.27;72.95;99294.22;10340859;28;20988;-48
2022/12/15 19:28:54;;;;;;;24.42;18.23;;;;;;;-2.25;72.47;99289.81;10343628;28;20049;-48
2022/12/15 19:33:56;;;;;;;24.88;16.63;;;;;;;-2.20;72.66;99273.97;10341063;28;20052;-48
2022/12/15 19:38:57;;;;;;;22.98;17.27;;;;;;;-2.20;72.33;99280.00;10341347;28;20156;-49
2022/12/15 19:43:59;;;;;;;24.23;16.25;;;;;;;-2.22;71.93;99286.19;10339081;28;20053;-49
2022/12/15 19:49:00;;;;;;;22.48;16.77;;;;;;;-2.26;72.36;99272.47;10340162;28;20140;-48
2022/12/15 19:54:02;;;;;;;21.40;15.13;;;;;;;-2.39;71.64;99243.47;10343100;28;20993;-49
2022/12/15 19:59:04;;;;;;;20.15;15.13;;;;;;;-2.09;71.54;99261.28;10336963;28;20083;-49
2022/12/15 20:04:05;;;;;;;20.77;15.23;;;;;;;-2.15;70.22;99259.81;10340299;28;20191;-49
2022/12/15 20:09:12;;;;;;;19.95;14.38;;;;;;;-2.14;70.00;99245.84;10342530;28;20342;-48
2022/12/15 20:14:16;;;;;;;19.00;14.60;;;;;;;-2.10;69.85;99235.28;10336686;28;20057;-52
2022/12/15 20:19:17;;;;;;;19.40;13.98;;;;;;;-2.20;69.09;99232.25;10341375;28;20049;-49
2022/12/15 20:24:19;;;;;;;18.00;13.05;;;;;;;-2.21;68.64;99220.13;10342502;28;20058;-50
2022/12/15 20:29:29;;;;;;;21.17;13.65;;;;;;;-2.28;68.53;99214.34;10340214;28;20194;-51
2022/12/15 20:34:31;;;;;;;19.15;14.38;;;;;;;-2.30;68.02;99216.16;10342360;28;20166;-51
2022/12/15 20:39:32;;;;;;;21.63;14.43;;;;;;;-2.33;68.02;99224.09;10337256;28;20051;-47
2022/12/15 20:44:34;;;;;;;19.02;13.93;;;;;;;-2.28;68.18;99224.75;10337157;28;20057;-48
2022/12/15 20:49:35;;;;;;;19.38;13.40;;;;;;;-2.25;67.93;99229.84;10332519;28;20781;-47
2022/12/15 20:54:37;;;;;;;20.05;13.75;;;;;;;-2.27;66.87;99229.03;10339374;28;20652;-50
2022/12/15 20:59:40;;;;;;;19.90;13.00;;;;;;;-2.22;67.40;99237.53;10339021;28;20494;-48
2022/12/15 21:04:41;;;;;;;19.13;13.50;;;;;;;-2.33;67.39;99219.75;10338495;28;20061;-48
2022/12/15 21:09:43;;;;;;;19.05;14.10;;;;;;;-2.34;68.07;99245.91;10331759;28;20505;-48
2022/12/15 21:14:44;;;;;;;19.85;14.35;;;;;;;-2.32;67.79;99249.28;10347233;28;20061;-50
2022/12/15 21:19:46;;;;;;;20.77;13.98;;;;;;;-2.28;68.02;99242.16;10362576;28;20045;-48
2022/12/15 21:24:53;;;;;;;17.45;13.60;;;;;;;-2.27;68.24;99241.25;10361337;28;20250;-48
2022/12/15 21:29:55;;;;;;;21.20;15.02;;;;;;;-2.34;68.81;99245.91;10360066;28;20096;-49
2022/12/15 21:34:56;;;;;;;20.65;14.35;;;;;;;-2.29;69.05;99250.91;10356865;28;20060;-49
2022/12/15 21:39:58;;;;;;;21.13;15.18;;;;;;;-2.26;69.55;99258.59;10363325;28;20098;-49
2022/12/15 21:45:00;;;;;;;18.98;14.00;;;;;;;-2.34;69.00;99261.53;10364492;28;20080;-47
2022/12/15 21:50:01;;;;;;;19.63;14.25;;;;;;;-2.29;69.10;99270.00;10356308;28;20053;-49
2022/12/15 21:55:17;;;;;;;19.98;13.52;;;;;;;-2.29;69.29;99272.59;10356616;28;20131;-48
2022/12/15 22:00:20;;;;;;;18.17;12.80;;;;;;;-2.25;69.87;99268.94;10360064;28;20777;-48
2022/12/15 22:05:31;;;;;;;19.88;13.40;;;;;;;-2.24;69.70;99282.81;10361423;28;20163;-49
2022/12/15 22:10:32;;;;;;;22.83;16.67;;;;;;;-2.26;69.87;99285.50;10361500;28;20187;-48
2022/12/15 22:15:34;;;;;;;20.83;14.10;;;;;;;-2.25;70.10;99281.13;10359634;28;20080;-48
2022/12/15 22:20:35;;;;;;;20.10;14.70;;;;;;;-2.27;69.66;99283.78;10361031;28;20527;-49
2022/12/15 22:25:36;;;;;;;18.65;12.88;;;;;;;-2.32;69.88;99285.75;10367990;28;20057;-47
2022/12/15 22:30:38;;;;;;;19.80;13.07;;;;;;;-2.33;70.29;99284.06;10368331;28;20037;-49
2022/12/15 22:35:39;;;;;;;17.38;12.75;;;;;;;-2.31;69.25;99292.69;10368894;28;20057;-47
2022/12/15 22:40:42;;;;;;;16.77;11.88;;;;;;;-2.35;70.22;99289.34;10367648;28;20057;-48
2022/12/15 22:45:43;;;;;;;18.13;12.23;;;;;;;-2.34;70.08;99283.22;10367116;28;20055;-47
2022/12/15 22:50:45;;;;;;;17.08;11.98;;;;;;;-2.34;70.18;99285.00;10368379;28;20076;-50
2022/12/15 22:55:48;;;;;;;17.10;11.88;;;;;;;-2.36;70.24;99284.19;10368269;28;20065;-49
2022/12/15 23:00:53;;;;;;;18.02;12.23;;;;;;;-2.37;69.94;99267.72;10368770;28;20048;-48
2022/12/15 23:05:55;;;;;;;18.10;13.55;;;;;;;-2.43;70.17;99262.78;10368431;28;20045;-47
2022/12/15 23:16:20;;;;;;;14.32;10.85;;;;;;;-2.35;70.80;99268.50;10368011;28;20135;-48
2022/12/15 23:21:22;;;;;;;15.05;12.10;;;;;;;-2.43;70.67;99270.59;10368991;28;20045;-49
2022/12/15 23:26:25;;;;;;;15.07;12.02;;;;;;;-2.47;70.86;99265.56;10369852;28;20818;-50
2022/12/15 23:31:26;;;;;;;16.05;11.32;;;;;;;-2.36;71.09;99263.34;10369564;28;20119;-48
2022/12/15 23:36:28;;;;;;;14.60;10.65;;;;;;;-2.36;71.26;99260.72;10368801;28;20144;-49
2022/12/15 23:41:29;;;;;;;14.85;10.45;;;;;;;-2.36;71.52;99259.00;10368045;28;20176;-48
2022/12/15 23:46:30;;;;;;;12.80;8.88;;;;;;;-2.36;71.76;99258.13;10366046;28;20049;-48
2022/12/15 23:51:32;;;;;;;15.35;10.43;;;;;;;-2.36;71.23;99260.72;10367121;28;20045;-49
2022/12/15 23:56:33;;;;;;;15.35;9.73;;;;;;;-2.47;71.77;99249.94;10368088;28;20498;-48
